Startpagina
METAR-TAF:

METAR-TAF

Vliegvelden :

Puerto Maldonado, Peru

breedte: 12-38S, lengte: 069-12W, hoogte: 265 m

Actueel weer

Dit bericht is 8 uur en het 6 minuten geleden gemaakt, om 19:00 UTC
Wind 5 kt uit het noordwesten, variërend tussen het westen en het noorden
Temperatuur 31°C
Vochtigheid 66%
Druk 1009 hPa
Zicht 10 km of meer
Verspreide wolken op 2000 ft

METAR: SPTU 111900Z 32005KT 270V360 9999 SCT020 31/24 Q1009 RMK BIRD HAZARD RWY 01/19 PP000

Tijdstip: 22:06 (03:06 UTC)

Verwachting

Dit bericht is 9 uur en het 56 minuten geleden gemaakt, om 17:10 UTC
Verwachting geldig van 10 om 18 UTC tot 11 om 18 UTC
Wind 5 kt uit het noordnoordwesten
Zicht 10 km of meer
Verspreide wolken op 1500 ft
Tijdelijke
van 10 om 18 UTC tot 10 om 21 UTC
Zicht: 5000 m
Gebroken wolken op 1000 ft
Verspreide wolken op 1500 ft, Cumulonimbus.
onweer, regen

TAF: SPTU 101710Z 1018/1118 33005KT 9999 SCT015 TX32/1020Z TN21/1111Z TEMPO 1018/1021 5000 TSRA BKN010 SCT015CB

Waarnemingen en weersverwachtingen van meer dan 4000 vliegvelden (METAR en TAF).

De beschikbare stations zijn de gele en rode punten op de kaart.

Ga met uw muis naar het station om de naam te zien.

Klik dan om waarnemingen en weersverwachtingen te zien.

kaart wijzigen: klik op de groene knoppen met een zwart kruis om in te zoomen, op de groene knop met een streepje om uit te zoomen of op de groene pijlen voor aangrenzende kaarten.


METAR-TAF: